createdAt,value
2017-05-01T00:00:12.472Z,0
2017-05-01T00:01:22.765Z,0
2017-05-01T00:02:32.998Z,0
2017-05-01T00:03:43.311Z,0
2017-05-01T00:04:53.601Z,0
2017-05-01T00:06:03.894Z,0
2017-05-01T00:07:14.174Z,0
2017-05-01T00:08:24.393Z,0
2017-05-01T00:09:34.690Z,0
2017-05-01T00:10:44.378Z,0
2017-05-01T00:11:54.344Z,0
2017-05-01T00:13:04.632Z,0
2017-05-01T00:14:14.865Z,0
2017-05-01T00:15:25.155Z,0
2017-05-01T00:16:34.854Z,0
2017-05-01T00:17:44.518Z,0
2017-05-01T00:18:54.498Z,0
2017-05-01T00:20:04.711Z,0
2017-05-01T00:21:14.365Z,0
2017-05-01T00:22:24.356Z,0
2017-05-01T00:23:34.338Z,0
2017-05-01T00:24:44.632Z,0
2017-05-01T00:25:54.858Z,0
2017-05-01T00:27:05.150Z,0
2017-05-01T00:28:15.434Z,0
2017-05-01T00:29:25.725Z,0
2017-05-01T00:30:35.692Z,0
2017-05-01T00:31:46.253Z,0
2017-05-01T00:32:56.249Z,0
2017-05-01T00:34:06.537Z,0
2017-05-01T00:35:16.813Z,0
2017-05-01T00:36:27.098Z,0
2017-05-01T00:37:37.323Z,0
2017-05-01T00:38:47.293Z,0
2017-05-01T00:39:57.584Z,0
2017-05-01T00:41:07.557Z,0
2017-05-01T00:42:17.845Z,0
2017-05-01T00:43:28.611Z,0
2017-05-01T00:44:38.589Z,0
2017-05-01T00:45:48.877Z,0
2017-05-01T00:46:58.852Z,0
2017-05-01T00:48:09.151Z,0
2017-05-01T00:49:19.687Z,0
2017-05-01T00:50:29.972Z,0
2017-05-01T00:51:39.936Z,0
2017-05-01T00:52:49.906Z,0
2017-05-01T00:53:59.883Z,0
2017-05-01T00:55:10.466Z,0
2017-05-01T00:56:20.756Z,0
2017-05-01T00:57:30.713Z,0
2017-05-01T00:58:41.004Z,0
2017-05-01T00:59:51.307Z,0
2017-05-01T01:01:01.549Z,0
2017-05-01T01:02:11.837Z,0
2017-05-01T01:03:22.132Z,0
2017-05-01T01:04:32.112Z,0
2017-05-01T01:05:42.078Z,0
2017-05-01T01:06:52.297Z,0
2017-05-01T01:08:02.585Z,0
2017-05-01T01:09:12.246Z,0
2017-05-01T01:10:22.538Z,0
2017-05-01T01:11:32.826Z,0
2017-05-01T01:12:43.049Z,0
2017-05-01T01:13:53.328Z,0
2017-05-01T01:15:03.303Z,0
2017-05-01T01:16:13.596Z,0
2017-05-01T01:17:23.574Z,0
2017-05-01T01:18:33.488Z,0
2017-05-01T01:19:43.771Z,0
2017-05-01T01:20:53.747Z,0
2017-05-01T01:22:04.054Z,0
2017-05-01T01:23:14.028Z,0
2017-05-01T01:24:23.950Z,0
2017-05-01T01:25:33.918Z,0
2017-05-01T01:26:43.903Z,0
2017-05-01T01:27:54.190Z,0
2017-05-01T01:29:04.472Z,0
2017-05-01T01:30:14.739Z,0
2017-05-01T01:31:25.034Z,0
2017-05-01T01:32:35.000Z,0
2017-05-01T01:33:45.306Z,0
2017-05-01T01:34:55.605Z,0
2017-05-01T01:36:06.139Z,0
2017-05-01T01:37:16.115Z,0
2017-05-01T01:38:26.081Z,0
2017-05-01T01:39:36.372Z,0
2017-05-01T01:40:46.336Z,0
2017-05-01T01:41:56.878Z,0
2017-05-01T01:43:07.158Z,0
2017-05-01T01:44:17.128Z,0
2017-05-01T01:45:27.100Z,0
2017-05-01T01:46:37.381Z,0
2017-05-01T01:47:47.606Z,0
2017-05-01T01:48:57.894Z,0
2017-05-01T01:50:07.858Z,0
2017-05-01T01:51:18.143Z,0
2017-05-01T01:52:28.126Z,0
2017-05-01T01:53:38.671Z,0
2017-05-01T01:54:48.643Z,0
2017-05-01T01:55:58.930Z,0
2017-05-01T01:57:09.216Z,0
2017-05-01T01:58:19.193Z,0
2017-05-01T01:59:29.741Z,0
2017-05-01T02:00:39.709Z,0
2017-05-01T02:01:49.990Z,0
2017-05-01T02:03:00.284Z,0
2017-05-01T02:04:10.565Z,0
2017-05-01T02:05:20.789Z,0
2017-05-01T02:06:31.064Z,0
2017-05-01T02:07:41.058Z,0
2017-05-01T02:08:51.367Z,0
2017-05-01T02:10:01.654Z,0
2017-05-01T02:11:12.184Z,0
2017-05-01T02:12:22.155Z,0
2017-05-01T02:13:32.442Z,0
2017-05-01T02:14:42.415Z,0
2017-05-01T02:15:52.395Z,0
2017-05-01T02:17:02.976Z,0
2017-05-01T02:18:12.958Z,0
2017-05-01T02:19:23.242Z,0
2017-05-01T02:20:33.209Z,0
2017-05-01T02:21:43.182Z,0
2017-05-01T02:22:53.726Z,0
2017-05-01T02:24:04.023Z,0
2017-05-01T02:25:13.678Z,0
2017-05-01T02:26:24.000Z,0
2017-05-01T02:27:33.971Z,0
2017-05-01T02:28:44.251Z,0
2017-05-01T02:29:54.547Z,0
2017-05-01T02:31:04.828Z,0
2017-05-01T02:32:14.808Z,0
2017-05-01T02:33:24.787Z,0
2017-05-01T02:34:35.010Z,0
2017-05-01T02:35:44.981Z,0
2017-05-01T02:36:54.630Z,0
2017-05-01T02:38:04.287Z,0
2017-05-01T02:39:14.265Z,0
2017-05-01T02:40:24.793Z,0
2017-05-01T02:41:35.073Z,0
2017-05-01T02:42:44.742Z,0
2017-05-01T02:43:54.714Z,0
2017-05-01T02:45:04.995Z,0
2017-05-01T02:46:15.537Z,0
2017-05-01T02:47:25.517Z,0
2017-05-01T02:48:35.483Z,0
2017-05-01T02:49:45.765Z,0
2017-05-01T02:50:55.423Z,0
2017-05-01T02:52:05.651Z,0
2017-05-01T02:53:15.933Z,0
2017-05-01T02:54:26.230Z,0
2017-05-01T02:55:36.197Z,0
2017-05-01T02:56:46.486Z,0
2017-05-01T02:57:57.022Z,0
2017-05-01T02:59:07.322Z,0
2017-05-01T03:00:17.605Z,0
2017-05-01T03:01:27.572Z,0
2017-05-01T03:02:37.542Z,0
2017-05-01T03:03:47.813Z,0
2017-05-01T03:04:57.780Z,0
2017-05-01T03:06:07.751Z,0
2017-05-01T03:07:17.429Z,0
2017-05-01T03:08:27.710Z,0
2017-05-01T03:09:38.242Z,0
2017-05-01T03:10:48.528Z,0
2017-05-01T03:11:58.510Z,0
2017-05-01T03:13:08.170Z,0
2017-05-01T03:14:18.456Z,0
2017-05-01T03:15:28.982Z,0
2017-05-01T03:16:39.271Z,0
2017-05-01T03:17:49.249Z,0
2017-05-01T03:18:59.523Z,0
2017-05-01T03:20:09.490Z,0
2017-05-01T03:21:20.100Z,0
2017-05-01T03:22:29.767Z,0
2017-05-01T03:23:39.734Z,0
2017-05-01T03:24:50.018Z,0
2017-05-01T03:25:59.989Z,0
2017-05-01T03:27:10.206Z,0
2017-05-01T03:28:20.185Z,0
2017-05-01T03:29:30.159Z,4
2017-05-01T03:30:40.438Z,4
2017-05-01T03:31:50.718Z,4
2017-05-01T03:33:01.262Z,0
2017-05-01T03:34:11.559Z,0
2017-05-01T03:35:21.845Z,0
2017-05-01T03:36:32.131Z,0
2017-05-01T03:37:42.111Z,4
2017-05-01T03:38:52.365Z,4
2017-05-01T03:40:02.649Z,0
2017-05-01T03:41:12.616Z,0
2017-05-01T03:42:22.892Z,4
2017-05-01T03:43:33.182Z,4
2017-05-01T03:44:43.407Z,4
2017-05-01T03:45:53.692Z,4
2017-05-01T03:47:03.690Z,4
2017-05-01T03:48:13.660Z,4
2017-05-01T03:49:23.946Z,4
2017-05-01T03:50:34.474Z,4
2017-05-01T03:51:44.449Z,8
2017-05-01T03:52:54.428Z,4
2017-05-01T03:54:04.406Z,4
2017-05-01T03:55:14.689Z,4
2017-05-01T03:56:25.254Z,8
2017-05-01T03:57:34.648Z,8
2017-05-01T03:58:44.936Z,8
2017-05-01T03:59:55.233Z,12
2017-05-01T04:01:05.205Z,8
2017-05-01T04:02:15.738Z,8
2017-05-01T04:03:26.022Z,12
2017-05-01T04:04:35.693Z,8
2017-05-01T04:05:45.671Z,16
2017-05-01T04:06:55.670Z,12
2017-05-01T04:08:06.203Z,24
2017-05-01T04:09:16.169Z,24
2017-05-01T04:10:26.449Z,20
2017-05-01T04:11:36.409Z,28
2017-05-01T04:12:46.073Z,32
2017-05-01T04:13:56.603Z,32
2017-05-01T04:15:06.888Z,36
2017-05-01T04:16:17.168Z,40
2017-05-01T04:17:27.457Z,40
2017-05-01T04:18:37.756Z,44
2017-05-01T04:19:48.011Z,44
2017-05-01T04:20:58.287Z,44
2017-05-01T04:22:07.949Z,48
2017-05-01T04:23:17.607Z,52
2017-05-01T04:24:27.891Z,48
2017-05-01T04:25:38.124Z,52
2017-05-01T04:26:48.099Z,52
2017-05-01T04:27:58.398Z,52
2017-05-01T04:29:08.676Z,52
2017-05-01T04:30:18.951Z,52
2017-05-01T04:31:29.176Z,52
2017-05-01T04:32:39.477Z,56
2017-05-01T04:33:49.456Z,56
2017-05-01T04:34:59.733Z,56
2017-05-01T04:36:10.008Z,60
2017-05-01T04:37:20.541Z,60
2017-05-01T04:38:30.833Z,64
2017-05-01T04:39:41.118Z,60
2017-05-01T04:40:51.089Z,60
2017-05-01T04:42:01.057Z,60
2017-05-01T04:43:11.597Z,60
2017-05-01T04:44:21.878Z,60
2017-05-01T04:45:32.166Z,56
2017-05-01T04:46:42.141Z,52
2017-05-01T04:47:52.420Z,28
2017-05-01T04:49:02.950Z,28
2017-05-01T04:50:12.604Z,28
2017-05-01T04:51:22.589Z,24
2017-05-01T04:52:32.564Z,24
2017-05-01T04:53:42.842Z,24
2017-05-01T04:54:53.378Z,24
2017-05-01T04:56:03.358Z,24
2017-05-01T04:57:13.320Z,24
2017-05-01T04:58:22.983Z,24
2017-05-01T04:59:33.266Z,24
2017-05-01T05:00:43.810Z,24
2017-05-01T05:01:53.778Z,20
2017-05-01T05:03:03.429Z,24
2017-05-01T05:04:13.412Z,24
2017-05-01T05:05:23.410Z,24
2017-05-01T05:06:33.942Z,28
2017-05-01T05:07:44.235Z,28
2017-05-01T05:08:54.519Z,28
2017-05-01T05:10:04.817Z,28
2017-05-01T05:11:15.100Z,24
2017-05-01T05:12:25.631Z,24
2017-05-01T05:13:35.605Z,24
2017-05-01T05:14:45.580Z,24
2017-05-01T05:15:55.880Z,24
2017-05-01T05:17:06.160Z,24
2017-05-01T05:18:16.391Z,20
2017-05-01T05:19:26.721Z,20
2017-05-01T05:20:37.015Z,20
2017-05-01T05:21:46.983Z,20
2017-05-01T05:22:57.262Z,20
2017-05-01T05:24:07.801Z,16
2017-05-01T05:25:17.454Z,20
2017-05-01T05:26:27.742Z,16
2017-05-01T05:27:38.020Z,16
2017-05-01T05:28:48.304Z,16
2017-05-01T05:29:58.591Z,16
2017-05-01T05:31:08.874Z,16
2017-05-01T05:32:19.393Z,16
2017-05-01T05:33:29.679Z,16
2017-05-01T05:34:39.660Z,16
2017-05-01T05:35:50.188Z,16
2017-05-01T05:37:00.480Z,16
2017-05-01T05:38:10.768Z,20
2017-05-01T05:39:21.074Z,16
2017-05-01T05:40:31.357Z,20
2017-05-01T05:41:41.577Z,24
2017-05-01T05:42:51.854Z,24
2017-05-01T05:44:01.529Z,28
2017-05-01T05:45:11.499Z,28
2017-05-01T05:46:21.472Z,28
2017-05-01T05:47:31.690Z,28
2017-05-01T05:48:41.979Z,28
2017-05-01T05:49:52.268Z,24
2017-05-01T05:51:02.553Z,24
2017-05-01T05:52:12.834Z,24
2017-05-01T05:53:23.361Z,20
2017-05-01T05:54:33.642Z,16
2017-05-01T05:55:43.608Z,20
2017-05-01T05:56:53.582Z,16
2017-05-01T05:58:03.856Z,20
2017-05-01T05:59:14.404Z,20
2017-05-01T06:00:24.380Z,20
2017-05-01T06:01:34.669Z,20
2017-05-01T06:02:44.643Z,20
2017-05-01T06:03:54.932Z,24
2017-05-01T06:05:05.470Z,20
2017-05-01T06:06:15.756Z,20
2017-05-01T06:07:26.040Z,20
2017-05-01T06:08:36.329Z,24
2017-05-01T06:09:46.635Z,20
2017-05-01T06:10:56.847Z,24
2017-05-01T06:12:06.822Z,24
2017-05-01T06:13:17.107Z,24
2017-05-01T06:14:27.399Z,24
2017-05-01T06:15:37.375Z,24
2017-05-01T06:16:47.902Z,28
2017-05-01T06:17:57.881Z,28
2017-05-01T06:19:07.855Z,28
2017-05-01T06:20:17.830Z,28
2017-05-01T06:21:27.799Z,28
2017-05-01T06:22:38.333Z,28
2017-05-01T06:23:48.313Z,28
2017-05-01T06:24:58.294Z,28
2017-05-01T06:26:08.577Z,28
2017-05-01T06:27:18.554Z,28
2017-05-01T06:28:29.109Z,32
2017-05-01T06:29:39.079Z,28
2017-05-01T06:30:49.055Z,32
2017-05-01T06:31:58.408Z,32
2017-05-01T06:33:08.689Z,28
2017-05-01T06:34:18.912Z,28
2017-05-01T06:35:29.205Z,32
2017-05-01T06:36:39.170Z,32
2017-05-01T06:37:49.452Z,28
2017-05-01T06:38:59.745Z,28
2017-05-01T06:40:10.276Z,32
2017-05-01T06:41:20.558Z,32
2017-05-01T06:42:30.846Z,32
2017-05-01T06:43:40.510Z,32
2017-05-01T06:44:50.794Z,36
2017-05-01T06:46:00.705Z,32
2017-05-01T06:47:11.001Z,32
2017-05-01T06:48:21.302Z,36
2017-05-01T06:49:31.281Z,36
2017-05-01T06:50:41.247Z,40
2017-05-01T06:51:51.784Z,40
2017-05-01T06:53:01.776Z,44
2017-05-01T06:54:11.765Z,40
2017-05-01T06:55:22.044Z,40
2017-05-01T06:56:32.316Z,44
2017-05-01T06:57:42.841Z,44
2017-05-01T06:58:53.133Z,48
2017-05-01T07:00:03.425Z,48
2017-05-01T07:01:13.709Z,48
2017-05-01T07:02:24.043Z,48
2017-05-01T07:03:34.586Z,48
2017-05-01T07:04:44.875Z,48
2017-05-01T07:05:54.858Z,44
2017-05-01T07:07:05.161Z,44
2017-05-01T07:08:15.443Z,44
2017-05-01T07:09:26.035Z,40
2017-05-01T07:10:36.313Z,44
2017-05-01T07:11:46.625Z,44
2017-05-01T07:12:56.930Z,44
2017-05-01T07:14:06.913Z,44
2017-05-01T07:15:17.150Z,44
2017-05-01T07:16:27.447Z,44
2017-05-01T07:17:37.108Z,44
2017-05-01T07:18:47.108Z,40
2017-05-01T07:19:57.403Z,40
2017-05-01T07:21:07.634Z,40
2017-05-01T07:22:17.920Z,44
2017-05-01T07:23:28.218Z,48
2017-05-01T07:24:38.505Z,44
2017-05-01T07:25:48.788Z,48
2017-05-01T07:26:59.019Z,48
2017-05-01T07:28:08.996Z,52
2017-05-01T07:29:19.297Z,52
2017-05-01T07:30:29.580Z,52
2017-05-01T07:31:39.899Z,56
2017-05-01T07:32:50.433Z,56
2017-05-01T07:34:00.876Z,60
2017-05-01T07:35:11.162Z,60
2017-05-01T07:36:21.140Z,64
2017-05-01T07:37:30.793Z,56
2017-05-01T07:38:41.023Z,56
2017-05-01T07:39:51.313Z,56
2017-05-01T07:41:01.618Z,60
2017-05-01T07:42:11.903Z,68
2017-05-01T07:43:22.191Z,76
2017-05-01T07:44:32.735Z,72
2017-05-01T07:45:43.020Z,64
2017-05-01T07:46:53.314Z,72
2017-05-01T07:48:03.296Z,68
2017-05-01T07:49:13.292Z,96
2017-05-01T07:50:23.821Z,68
2017-05-01T07:51:33.797Z,72
2017-05-01T07:52:44.105Z,88
2017-05-01T07:53:54.084Z,80
2017-05-01T07:55:04.079Z,68
2017-05-01T07:56:14.300Z,92
2017-05-01T07:57:24.580Z,72
2017-05-01T07:58:34.559Z,88
2017-05-01T07:59:44.849Z,76
2017-05-01T08:00:55.150Z,96
2017-05-01T08:02:05.688Z,84
2017-05-01T08:03:15.350Z,68
2017-05-01T08:04:25.648Z,96
2017-05-01T08:05:35.930Z,68
2017-05-01T08:06:46.228Z,64
2017-05-01T08:07:56.453Z,68
2017-05-01T08:09:06.437Z,88
2017-05-01T08:10:16.741Z,84
2017-05-01T08:11:27.036Z,72
2017-05-01T08:12:36.707Z,72
2017-05-01T08:13:46.948Z,72
2017-05-01T08:14:57.297Z,84
2017-05-01T08:16:07.590Z,72
2017-05-01T08:17:17.874Z,76
2017-05-01T08:18:28.181Z,68
2017-05-01T08:19:38.721Z,64
2017-05-01T08:20:49.022Z,68
2017-05-01T08:21:59.003Z,76
2017-05-01T08:23:09.296Z,72
2017-05-01T08:24:19.275Z,76
2017-05-01T08:25:29.880Z,64
2017-05-01T08:26:39.858Z,60
2017-05-01T08:27:50.163Z,64
2017-05-01T08:29:00.471Z,80
2017-05-01T08:30:10.468Z,72
2017-05-01T08:31:21.009Z,84
2017-05-01T08:32:30.695Z,84
2017-05-01T08:33:40.991Z,76
2017-05-01T08:34:50.973Z,76
2017-05-01T08:36:01.267Z,72
2017-05-01T08:37:11.502Z,80
2017-05-01T08:38:21.817Z,72
2017-05-01T08:39:32.127Z,84
2017-05-01T08:40:42.113Z,72
2017-05-01T08:41:52.413Z,76
2017-05-01T08:43:02.954Z,72
2017-05-01T08:44:12.941Z,88
2017-05-01T08:45:22.935Z,84
2017-05-01T08:46:33.232Z,88
2017-05-01T08:47:43.219Z,72
2017-05-01T08:48:53.763Z,64
2017-05-01T08:50:04.056Z,80
2017-05-01T08:51:14.047Z,84
2017-05-01T08:52:24.350Z,96
2017-05-01T08:53:34.677Z,80
2017-05-01T08:54:45.241Z,96
2017-05-01T08:55:54.902Z,84
2017-05-01T08:57:05.189Z,92
2017-05-01T08:58:15.166Z,88
2017-05-01T08:59:25.462Z,92
2017-05-01T09:00:36.001Z,84
2017-05-01T09:01:46.305Z,88
2017-05-01T09:02:56.706Z,88
2017-05-01T09:04:07.001Z,88
2017-05-01T09:05:17.303Z,92
2017-05-01T09:06:27.220Z,88
2017-05-01T09:07:37.254Z,72
2017-05-01T09:08:47.583Z,76
2017-05-01T09:09:57.886Z,88
2017-05-01T09:11:08.202Z,80
2017-05-01T09:12:18.431Z,76
2017-05-01T09:13:28.443Z,88
2017-05-01T09:14:38.421Z,88
2017-05-01T09:15:48.424Z,92
2017-05-01T09:16:58.423Z,76
2017-05-01T09:18:08.982Z,92
2017-05-01T09:19:19.540Z,88
2017-05-01T09:20:29.527Z,88
2017-05-01T09:21:39.827Z,84
2017-05-01T09:22:50.150Z,92
2017-05-01T09:24:00.412Z,72
2017-05-01T09:25:10.744Z,92
2017-05-01T09:26:21.040Z,92
2017-05-01T09:27:31.348Z,92
2017-05-01T09:28:41.651Z,84
2017-05-01T09:29:52.233Z,84
2017-05-01T09:31:02.258Z,64
2017-05-01T09:32:12.574Z,88
2017-05-01T09:33:22.607Z,76
2017-05-01T09:34:32.925Z,64
2017-05-01T09:35:43.176Z,88
2017-05-01T09:36:53.175Z,76
2017-05-01T09:38:03.539Z,88
2017-05-01T09:39:13.853Z,88
2017-05-01T09:40:24.184Z,88
2017-05-01T09:41:34.110Z,84
2017-05-01T09:42:44.144Z,88
2017-05-01T09:43:54.139Z,84
2017-05-01T09:45:03.819Z,84
2017-05-01T09:46:14.150Z,88
2017-05-01T09:47:24.392Z,88
2017-05-01T09:48:34.707Z,84
2017-05-01T09:49:45.048Z,84
2017-05-01T09:50:55.392Z,84
2017-05-01T09:52:05.392Z,88
2017-05-01T09:53:15.955Z,88
2017-05-01T09:54:26.253Z,88
2017-05-01T09:55:35.626Z,92
2017-05-01T09:56:45.950Z,92
2017-05-01T09:57:56.277Z,88
2017-05-01T09:59:06.846Z,92
2017-05-01T10:00:16.832Z,88
2017-05-01T10:01:27.152Z,88
2017-05-01T10:02:37.451Z,88
2017-05-01T10:03:47.156Z,88
2017-05-01T10:04:57.709Z,88
2017-05-01T10:06:07.709Z,88
2017-05-01T10:07:17.703Z,88
2017-05-01T10:08:27.715Z,92
2017-05-01T10:09:38.036Z,92
2017-05-01T10:10:48.601Z,92
2017-05-01T10:11:58.314Z,88
2017-05-01T10:13:08.636Z,88
2017-05-01T10:14:18.941Z,88
2017-05-01T10:15:29.252Z,92
2017-05-01T10:16:39.489Z,88
2017-05-01T10:17:49.811Z,88
2017-05-01T10:18:59.818Z,88
2017-05-01T10:20:09.840Z,88
2017-05-01T10:21:19.846Z,84
2017-05-01T10:22:30.412Z,88
2017-05-01T10:23:40.713Z,88
2017-05-01T10:24:51.027Z,88
2017-05-01T10:26:01.043Z,80
2017-05-01T10:27:11.392Z,44
2017-05-01T10:28:21.959Z,88
2017-05-01T10:29:32.295Z,88
2017-05-01T10:30:42.616Z,52
2017-05-01T10:31:52.950Z,92
2017-05-01T10:33:03.264Z,88
2017-05-01T10:34:13.853Z,68
2017-05-01T10:35:23.850Z,76
2017-05-01T10:36:34.178Z,84
2017-05-01T10:37:44.528Z,88
2017-05-01T10:38:54.222Z,88
2017-05-01T10:40:04.805Z,88
2017-05-01T10:41:14.802Z,88
2017-05-01T10:42:25.131Z,88
2017-05-01T10:43:35.127Z,88
2017-05-01T10:44:45.146Z,92
2017-05-01T10:45:55.702Z,88
2017-05-01T10:47:06.019Z,92
2017-05-01T10:48:15.418Z,92
2017-05-01T10:49:25.747Z,92
2017-05-01T10:50:36.095Z,88
2017-05-01T10:51:46.651Z,88
2017-05-01T10:52:56.659Z,88
2017-05-01T10:54:06.967Z,88
2017-05-01T10:55:16.962Z,88
2017-05-01T10:56:27.268Z,88
2017-05-01T10:57:37.844Z,52
2017-05-01T10:58:48.171Z,72
2017-05-01T10:59:58.520Z,92
2017-05-01T11:01:08.535Z,92
2017-05-01T11:02:18.520Z,48
2017-05-01T11:03:29.092Z,44
2017-05-01T11:04:39.393Z,44
2017-05-01T11:05:49.415Z,44
2017-05-01T11:06:59.729Z,44
2017-05-01T11:08:10.032Z,44
2017-05-01T11:09:20.596Z,48
2017-05-01T11:10:30.595Z,96
2017-05-01T11:11:40.604Z,96
2017-05-01T11:12:50.919Z,96
2017-05-01T11:14:01.234Z,56
2017-05-01T11:15:11.804Z,92
2017-05-01T11:16:22.114Z,56
2017-05-01T11:17:32.326Z,92
2017-05-01T11:18:42.309Z,96
2017-05-01T11:19:52.295Z,52
2017-05-01T11:21:02.535Z,48
2017-05-01T11:22:12.829Z,44
2017-05-01T11:23:23.146Z,44
2017-05-01T11:24:33.455Z,48
2017-05-01T11:25:42.850Z,48
2017-05-01T11:26:53.088Z,56
2017-05-01T11:28:03.387Z,48
2017-05-01T11:29:13.385Z,48
2017-05-01T11:30:23.709Z,48
2017-05-01T11:31:34.012Z,52
2017-05-01T11:32:44.557Z,52
2017-05-01T11:33:54.871Z,92
2017-05-01T11:35:05.171Z,96
2017-05-01T11:36:14.531Z,92
2017-05-01T11:37:24.833Z,84
2017-05-01T11:38:34.773Z,56
2017-05-01T11:39:44.449Z,68
2017-05-01T11:40:54.765Z,44
2017-05-01T11:42:04.741Z,48
2017-05-01T11:43:14.753Z,44
2017-05-01T11:44:25.316Z,84
2017-05-01T11:45:35.631Z,72
2017-05-01T11:46:45.959Z,48
2017-05-01T11:47:55.976Z,72
2017-05-01T11:49:06.279Z,56
2017-05-01T11:50:16.543Z,56
2017-05-01T11:51:26.846Z,36
2017-05-01T11:52:36.519Z,36
2017-05-01T11:53:46.527Z,40
2017-05-01T11:54:56.554Z,36
2017-05-01T11:56:07.124Z,40
2017-05-01T11:57:16.810Z,44
2017-05-01T11:58:27.135Z,68
2017-05-01T11:59:37.431Z,72
2017-05-01T12:00:47.753Z,36
2017-05-01T12:01:58.316Z,36
2017-05-01T12:03:07.995Z,36
2017-05-01T12:04:17.678Z,36
2017-05-01T12:05:27.555Z,36
2017-05-01T12:06:37.861Z,36
2017-05-01T12:07:48.412Z,40
2017-05-01T12:08:58.724Z,40
2017-05-01T12:10:09.029Z,40
2017-05-01T12:11:19.336Z,44
2017-05-01T12:12:29.047Z,44
2017-05-01T12:13:39.669Z,44
2017-05-01T12:14:49.982Z,44
2017-05-01T12:16:00.302Z,48
2017-05-01T12:17:10.599Z,48
2017-05-01T12:18:20.935Z,48
2017-05-01T12:19:31.508Z,44
2017-05-01T12:20:41.817Z,48
2017-05-01T12:21:51.807Z,44
2017-05-01T12:23:02.144Z,48
2017-05-01T12:24:12.140Z,48
2017-05-01T12:25:22.068Z,52
2017-05-01T12:26:31.455Z,52
2017-05-01T12:27:41.767Z,52
2017-05-01T12:28:51.774Z,48
2017-05-01T12:30:01.807Z,48
2017-05-01T12:31:12.387Z,44
2017-05-01T12:32:22.400Z,44
2017-05-01T12:33:32.090Z,40
2017-05-01T12:34:42.400Z,40
2017-05-01T12:35:52.076Z,40
2017-05-01T12:37:02.646Z,40
2017-05-01T12:38:12.355Z,44
2017-05-01T12:39:22.668Z,40
2017-05-01T12:40:33.009Z,36
2017-05-01T12:41:42.998Z,32
2017-05-01T12:42:53.264Z,32
2017-05-01T12:44:03.589Z,28
2017-05-01T12:45:13.908Z,32
2017-05-01T12:46:23.903Z,32
2017-05-01T12:47:33.900Z,36
2017-05-01T12:48:44.459Z,36
2017-05-01T12:49:54.461Z,40
2017-05-01T12:51:04.765Z,44
2017-05-01T12:52:14.436Z,44
2017-05-01T12:53:24.447Z,56
2017-05-01T12:54:34.695Z,52
2017-05-01T12:55:45.002Z,48
2017-05-01T12:56:54.995Z,48
2017-05-01T12:58:05.304Z,44
2017-05-01T12:59:14.362Z,44
2017-05-01T13:00:25.487Z,40
2017-05-01T13:01:35.227Z,40
2017-05-01T13:02:45.228Z,40
2017-05-01T13:03:55.234Z,40
2017-05-01T13:05:05.231Z,40
2017-05-01T13:06:15.507Z,36
2017-05-01T13:07:25.803Z,40
2017-05-01T13:08:36.130Z,40
2017-05-01T13:09:46.428Z,40
2017-05-01T13:10:56.111Z,40
2017-05-01T13:12:06.669Z,40
2017-05-01T13:13:17.027Z,44
2017-05-01T13:14:27.409Z,48
2017-05-01T13:15:37.721Z,52
2017-05-01T13:16:47.737Z,44
2017-05-01T13:17:57.981Z,40
2017-05-01T13:19:07.977Z,44
2017-05-01T13:20:18.285Z,40
2017-05-01T13:21:28.279Z,40
2017-05-01T13:22:38.612Z,40
2017-05-01T13:23:49.185Z,40
2017-05-01T13:24:59.235Z,40
2017-05-01T13:26:09.581Z,40
2017-05-01T13:27:19.262Z,40
2017-05-01T13:28:29.579Z,40
2017-05-01T13:29:40.146Z,40
2017-05-01T13:30:50.167Z,40
2017-05-01T13:32:00.183Z,40
2017-05-01T13:33:10.190Z,40
2017-05-01T13:34:20.237Z,40
2017-05-01T13:35:30.804Z,36
2017-05-01T13:36:41.101Z,32
2017-05-01T13:37:51.484Z,28
2017-05-01T13:39:01.823Z,28
2017-05-01T13:40:11.825Z,28
2017-05-01T13:41:22.060Z,24
2017-05-01T13:42:32.078Z,24
2017-05-01T13:43:42.414Z,28
2017-05-01T13:44:52.407Z,24
2017-05-01T13:46:02.435Z,24
2017-05-01T13:47:12.675Z,24
2017-05-01T13:48:22.694Z,20
2017-05-01T13:49:32.389Z,24
2017-05-01T13:50:42.702Z,20
2017-05-01T13:51:53.003Z,20
2017-05-01T13:53:03.294Z,24
2017-05-01T13:54:13.609Z,20
2017-05-01T13:55:23.621Z,24
2017-05-01T13:56:33.329Z,24
2017-05-01T13:57:43.316Z,24
2017-05-01T13:58:53.914Z,24
2017-05-01T14:00:04.256Z,24
2017-05-01T14:01:14.296Z,28
2017-05-01T14:02:24.313Z,28
2017-05-01T14:03:34.651Z,32
2017-05-01T14:04:45.250Z,28
2017-05-01T14:05:54.947Z,32
2017-05-01T14:07:05.298Z,32
2017-05-01T14:08:15.330Z,32
2017-05-01T14:09:25.677Z,28
2017-05-01T14:10:35.926Z,28
2017-05-01T14:11:45.960Z,24
2017-05-01T14:12:55.957Z,24
2017-05-01T14:14:06.311Z,24
2017-05-01T14:15:16.346Z,24
2017-05-01T14:16:26.911Z,24
2017-05-01T14:17:37.280Z,28
2017-05-01T14:18:47.622Z,28
2017-05-01T14:19:57.987Z,28
2017-05-01T14:21:08.314Z,28
2017-05-01T14:22:18.606Z,32
2017-05-01T14:23:28.621Z,32
2017-05-01T14:24:38.323Z,32
2017-05-01T14:25:48.341Z,32
2017-05-01T14:26:58.109Z,36
2017-05-01T14:28:08.407Z,36
2017-05-01T14:29:17.505Z,40
2017-05-01T14:30:27.894Z,40
2017-05-01T14:31:37.882Z,40
2017-05-01T14:32:48.229Z,40
2017-05-01T14:33:58.853Z,40
2017-05-01T14:35:09.192Z,36
2017-05-01T14:36:19.513Z,36
2017-05-01T14:37:29.548Z,32
2017-05-01T14:38:39.865Z,32
2017-05-01T14:39:50.162Z,28
2017-05-01T14:41:00.471Z,32
2017-05-01T14:42:10.852Z,32
2017-05-01T14:43:20.565Z,32
2017-05-01T14:44:30.883Z,28
2017-05-01T14:45:41.155Z,28
2017-05-01T14:46:51.166Z,28
2017-05-01T14:48:00.914Z,24
2017-05-01T14:49:10.563Z,28
2017-05-01T14:50:19.984Z,28
2017-05-01T14:51:30.252Z,28
2017-05-01T14:52:40.589Z,24
2017-05-01T14:53:50.646Z,28
2017-05-01T14:55:00.992Z,28
2017-05-01T14:56:10.986Z,24
2017-05-01T14:57:21.260Z,28
2017-05-01T14:58:30.976Z,28
2017-05-01T14:59:41.285Z,28
2017-05-01T15:00:51.663Z,28
2017-05-01T15:02:02.026Z,28
2017-05-01T15:03:12.633Z,28
2017-05-01T15:04:22.959Z,28
2017-05-01T15:05:33.321Z,28
2017-05-01T15:06:43.375Z,24
2017-05-01T15:07:53.760Z,28
2017-05-01T15:09:04.074Z,28
2017-05-01T15:10:14.085Z,28
2017-05-01T15:11:24.110Z,32
2017-05-01T15:12:34.439Z,32
2017-05-01T15:13:44.806Z,32
2017-05-01T15:14:55.411Z,28
2017-05-01T15:16:05.443Z,32
2017-05-01T15:17:15.832Z,28
2017-05-01T15:18:25.865Z,28
2017-05-01T15:19:36.229Z,28
2017-05-01T15:20:46.573Z,28
2017-05-01T15:21:56.908Z,28
2017-05-01T15:23:07.292Z,28
2017-05-01T15:24:17.638Z,28
2017-05-01T15:25:27.998Z,28
2017-05-01T15:26:38.319Z,28
2017-05-01T15:27:48.704Z,28
2017-05-01T15:28:59.049Z,28
2017-05-01T15:30:09.410Z,28
2017-05-01T15:31:19.132Z,24
2017-05-01T15:32:29.809Z,28
2017-05-01T15:33:39.812Z,24
2017-05-01T15:34:50.159Z,24
2017-05-01T15:36:00.203Z,28
2017-05-01T15:37:10.528Z,24
2017-05-01T15:38:20.573Z,28
2017-05-01T15:39:30.605Z,24
2017-05-01T15:40:40.642Z,24
2017-05-01T15:41:50.665Z,28
2017-05-01T15:43:01.056Z,28
2017-05-01T15:44:11.347Z,24
2017-05-01T15:45:21.365Z,24
2017-05-01T15:46:31.741Z,24
2017-05-01T15:47:42.067Z,28
2017-05-01T15:48:52.420Z,24
2017-05-01T15:50:03.034Z,24
2017-05-01T15:51:13.474Z,24
2017-05-01T15:52:24.069Z,24
2017-05-01T15:53:34.434Z,20
2017-05-01T15:54:44.786Z,24
2017-05-01T15:55:55.464Z,20
2017-05-01T15:57:05.810Z,20
2017-05-01T15:58:15.884Z,20
2017-05-01T15:59:26.250Z,20
2017-05-01T16:00:36.564Z,20
2017-05-01T16:01:46.880Z,20
2017-05-01T16:02:57.219Z,20
2017-05-01T16:04:07.567Z,20
2017-05-01T16:05:17.570Z,20
2017-05-01T16:06:27.927Z,20
2017-05-01T16:07:38.522Z,16
2017-05-01T16:08:48.873Z,20
2017-05-01T16:09:59.230Z,16
2017-05-01T16:11:09.288Z,20
2017-05-01T16:12:19.005Z,16
2017-05-01T16:13:29.634Z,16
2017-05-01T16:14:40.006Z,16
2017-05-01T16:15:50.024Z,20
2017-05-01T16:17:00.380Z,16
2017-05-01T16:18:10.765Z,16
2017-05-01T16:19:21.383Z,12
2017-05-01T16:20:31.422Z,16
2017-05-01T16:21:41.789Z,16
2017-05-01T16:22:52.160Z,12
2017-05-01T16:24:01.873Z,16
2017-05-01T16:25:12.510Z,12
2017-05-01T16:26:22.533Z,12
2017-05-01T16:27:32.922Z,16
2017-05-01T16:28:43.272Z,12
2017-05-01T16:29:53.671Z,12
2017-05-01T16:31:03.983Z,8
2017-05-01T16:32:13.726Z,12
2017-05-01T16:33:24.098Z,8
2017-05-01T16:34:34.470Z,8
2017-05-01T16:35:44.554Z,12
2017-05-01T16:36:55.152Z,12
2017-05-01T16:38:05.519Z,12
2017-05-01T16:39:15.887Z,8
2017-05-01T16:40:26.269Z,8
2017-05-01T16:41:36.321Z,8
2017-05-01T16:42:46.956Z,8
2017-05-01T16:43:56.693Z,8
2017-05-01T16:45:07.086Z,8
2017-05-01T16:46:17.467Z,8
2017-05-01T16:47:27.880Z,8
2017-05-01T16:48:38.554Z,8
2017-05-01T16:49:48.945Z,8